Time;durP1;ratioP1;P1;durP2;ratioP2;P2;SDS_P1;SDS_P2;PMS_P1;PMS_P2;Temp;Humidity;BMP_temperature;BMP_pressure;BME280_temperature;BME280_humidity;BME280_pressure;Samples;Min_cycle;Max_cycle;Signal;HPM_P1;HPM_P2
2023/06/16 00:02:12;;;;;;;12.98;10.00;;;;;;;17.51;86.13;94264.47;5053767;28;20032;-69
2023/06/16 00:04:43;;;;;;;11.98;10.15;;;;;;;17.37;86.08;94248.56;5073055;28;20578;-69
2023/06/16 00:07:11;;;;;;;12.65;9.65;;;;;;;17.52;85.99;94268.72;5089378;28;20047;-69
2023/06/16 00:09:38;;;;;;;13.30;10.63;;;;;;;17.39;86.65;94267.56;5088810;28;20032;-69
2023/06/16 00:12:04;;;;;;;12.48;10.70;;;;;;;17.24;87.11;94258.06;5089070;28;20024;-70
2023/06/16 00:14:29;;;;;;;14.30;11.35;;;;;;;17.14;87.57;94263.59;5069837;28;20039;-69
2023/06/16 00:16:57;;;;;;;14.30;10.57;;;;;;;17.12;88.02;94255.88;5068946;28;20024;-69
2023/06/16 00:19:27;;;;;;;15.65;11.00;;;;;;;17.18;87.80;94249.09;5085707;28;20406;-69
2023/06/16 00:21:52;;;;;;;15.10;10.77;;;;;;;17.39;86.54;94264.13;5092151;28;20028;-69
2023/06/16 00:24:18;;;;;;;12.55;9.80;;;;;;;17.25;86.40;94228.22;5065816;28;20406;-69
2023/06/16 00:26:43;;;;;;;13.68;9.90;;;;;;;17.40;86.13;94242.94;5084121;28;20093;-70
2023/06/16 00:29:09;;;;;;;16.10;9.85;;;;;;;17.48;85.91;94249.09;5074388;28;20486;-70
2023/06/16 00:31:35;;;;;;;16.27;10.30;;;;;;;17.25;85.51;94215.09;5075553;28;20029;-70
2023/06/16 00:34:00;;;;;;;12.73;10.45;;;;;;;17.31;85.69;94248.47;5058115;28;20099;-69
2023/06/16 00:36:26;;;;;;;13.15;10.60;;;;;;;17.19;86.63;94237.63;5056349;28;20029;-71
2023/06/16 00:38:51;;;;;;;13.27;11.00;;;;;;;17.21;86.61;94256.59;5078018;28;20405;-69
2023/06/16 00:41:17;;;;;;;14.02;10.52;;;;;;;17.37;86.94;94258.25;5075567;28;20043;-69
2023/06/16 00:43:42;;;;;;;14.50;11.25;;;;;;;17.32;86.88;94250.91;5092364;28;20028;-69
2023/06/16 00:46:09;;;;;;;14.60;10.48;;;;;;;17.46;86.09;94249.25;5090043;28;20066;-69
2023/06/16 00:48:34;;;;;;;13.30;11.48;;;;;;;16.98;85.14;94167.50;5091166;28;20032;-69
2023/06/16 00:51:00;;;;;;;12.63;10.45;;;;;;;17.38;85.03;94239.69;5058074;28;20575;-69
2023/06/16 00:53:25;;;;;;;14.32;10.10;;;;;;;17.38;85.55;94241.47;5073529;28;20395;-69
2023/06/16 00:55:51;;;;;;;12.85;10.48;;;;;;;17.35;85.59;94234.78;5075222;28;20047;-69
2023/06/16 00:58:17;;;;;;;13.45;10.40;;;;;;;17.07;86.11;94218.88;5057953;28;20036;-69
2023/06/16 01:00:43;;;;;;;14.73;11.23;;;;;;;17.08;86.71;94232.84;5075220;28;20024;-70
2023/06/16 01:03:13;;;;;;;13.00;10.55;;;;;;;17.35;87.02;94228.72;5092058;28;20028;-69
2023/06/16 01:05:38;;;;;;;16.90;9.70;;;;;;;17.47;86.07;94231.69;5076985;28;20413;-69
2023/06/16 01:08:11;;;;;;;13.48;9.90;;;;;;;17.52;85.58;94226.72;5064252;28;20295;-69
2023/06/16 01:10:56;;;;;;;11.90;9.45;;;;;;;17.48;85.69;94234.16;5055267;28;20059;-69
2023/06/16 01:13:26;;;;;;;13.35;9.93;;;;;;;17.41;85.29;94220.94;5072903;28;20490;-69
2023/06/16 01:15:52;;;;;;;;;;;;;;;17.41;85.38;94220.94;5072944;28;20082;-69
2023/06/16 01:18:22;;;;;;;13.57;9.45;;;;;;;17.41;85.53;94214.88;5071679;28;20186;-69
2023/06/16 01:20:55;;;;;;;13.55;10.07;;;;;;;17.35;85.25;94205.91;5071556;28;20540;-69
2023/06/16 01:23:56;;;;;;;16.55;10.27;;;;;;;17.34;85.70;94209.53;5082987;28;20032;-69
2023/06/16 01:26:22;;;;;;;11.25;9.07;;;;;;;17.38;85.93;94212.59;5091725;28;20470;-69
2023/06/16 01:28:49;;;;;;;12.90;8.90;;;;;;;17.38;86.02;94202.94;5058055;28;20489;-69
2023/06/16 01:31:15;;;;;;;13.85;9.55;;;;;;;17.43;86.14;94212.88;5051624;28;20024;-69
2023/06/16 01:33:41;;;;;;;13.90;9.82;;;;;;;17.44;85.61;94209.28;5072125;28;20040;-69
2023/06/16 01:36:06;;;;;;;13.27;10.02;;;;;;;17.19;85.54;94180.69;5054437;28;20020;-69
2023/06/16 01:38:32;;;;;;;13.00;9.45;;;;;;;17.24;86.65;94202.94;5067058;28;20042;-69
2023/06/16 01:40:57;;;;;;;12.93;10.23;;;;;;;17.25;86.79;94204.59;5074402;28;20505;-69
2023/06/16 01:43:22;;;;;;;15.43;10.90;;;;;;;17.08;87.04;94204.78;5051997;28;20412;-69
2023/06/16 01:45:49;;;;;;;14.85;10.60;;;;;;;16.69;87.20;94132.38;5071004;28;20046;-69
2023/06/16 01:48:15;;;;;;;15.23;10.18;;;;;;;17.19;87.63;94191.19;5070925;28;20043;-69
2023/06/16 01:50:41;;;;;;;13.35;9.75;;;;;;;17.35;87.13;94192.78;5054158;28;20484;-69
2023/06/16 01:53:06;;;;;;;14.07;10.35;;;;;;;16.80;86.77;94132.94;5063649;28;20032;-69
2023/06/16 01:55:32;;;;;;;18.33;10.52;;;;;;;17.18;87.35;94201.84;5087706;28;20043;-69
2023/06/16 01:57:57;;;;;;;13.30;9.68;;;;;;;17.19;87.20;94195.63;5053958;28;20414;-69
2023/06/16 02:00:35;;;;;;;12.27;9.30;;;;;;;17.17;86.53;94174.81;5070899;28;20020;-69
2023/06/16 02:03:11;;;;;;;11.68;9.10;;;;;;;17.30;85.67;94176.78;5070620;28;20020;-69
2023/06/16 02:05:36;;;;;;;11.02;8.52;;;;;;;17.52;85.16;94197.81;5054768;28;20033;-69
2023/06/16 02:08:02;;;;;;;13.55;8.45;;;;;;;17.40;85.73;94202.75;5071939;28;20033;-69
2023/06/16 02:10:28;;;;;;;10.98;7.90;;;;;;;17.40;85.60;94187.81;5067093;28;20414;-70
2023/06/16 02:12:53;;;;;;;11.05;8.82;;;;;;;17.35;85.32;94174.41;5067758;28;20033;-69
2023/06/16 02:15:20;;;;;;;11.35;8.40;;;;;;;17.45;84.58;94189.88;5055578;28;20036;-69
2023/06/16 02:17:45;;;;;;;9.85;8.07;;;;;;;17.48;84.08;94209.72;5073830;28;20092;-69
2023/06/16 02:20:12;;;;;;;10.75;8.32;;;;;;;17.04;84.39;94152.84;5073609;28;20447;-69
2023/06/16 02:22:37;;;;;;;11.45;8.38;;;;;;;17.43;84.70;94200.56;5070845;28;20115;-69
2023/06/16 02:25:03;;;;;;;10.98;8.25;;;;;;;17.45;84.82;94202.22;5060386;28;20418;-69
2023/06/16 02:27:28;;;;;;;10.80;8.63;;;;;;;17.40;85.13;94198.31;5070053;28;20025;-69
2023/06/16 02:29:54;;;;;;;10.55;8.30;;;;;;;16.96;84.69;94123.06;5070640;28;20614;-69
2023/06/16 02:32:19;;;;;;;10.57;8.88;;;;;;;17.35;85.04;94184.91;5065260;28;20410;-69
2023/06/16 02:34:46;;;;;;;12.55;9.20;;;;;;;17.22;85.19;94189.19;5036681;28;20491;-69
2023/06/16 02:37:13;;;;;;;9.82;8.35;;;;;;;17.14;85.96;94197.97;5041788;28;20549;-69
2023/06/16 02:39:39;;;;;;;11.20;9.23;;;;;;;17.01;86.75;94205.69;5070092;28;20032;-69
2023/06/16 02:42:05;;;;;;;14.10;9.52;;;;;;;16.92;87.12;94204.94;5069887;28;20078;-69
2023/06/16 02:44:30;;;;;;;12.02;8.60;;;;;;;16.75;88.01;94188.53;5086503;28;20075;-69
2023/06/16 02:46:57;;;;;;;10.50;8.05;;;;;;;17.14;87.29;94203.22;5090072;28;20028;-69
2023/06/16 02:49:23;;;;;;;9.93;8.43;;;;;;;17.15;86.97;94197.78;5090917;28;20131;-69
2023/06/16 02:51:50;;;;;;;12.05;9.45;;;;;;;16.84;87.04;94135.03;5048768;28;20032;-69
2023/06/16 02:54:15;;;;;;;12.25;9.82;;;;;;;17.04;87.33;94182.50;5036901;28;20055;-69
2023/06/16 02:56:41;;;;;;;11.98;9.27;;;;;;;17.16;86.83;94193.34;5053071;28;20444;-69
2023/06/16 02:59:06;;;;;;;12.30;9.50;;;;;;;17.22;85.94;94176.91;5053197;28;20410;-69
2023/06/16 03:01:32;;;;;;;11.30;8.63;;;;;;;17.29;85.62;94201.41;5071878;28;20028;-69
2023/06/16 03:03:58;;;;;;;10.77;8.73;;;;;;;17.06;86.24;94184.97;5054107;28;20112;-69
2023/06/16 03:06:23;;;;;;;10.75;8.43;;;;;;;17.28;86.34;94184.03;5069616;28;20108;-69
2023/06/16 03:08:49;;;;;;;11.90;9.35;;;;;;;17.20;86.21;94198.06;5036291;28;20098;-70
2023/06/16 03:11:15;;;;;;;9.95;8.68;;;;;;;17.17;86.60;94202.88;5069648;28;20406;-69
2023/06/16 03:13:41;;;;;;;10.02;8.23;;;;;;;17.31;85.84;94190.72;5076932;28;20043;-69
2023/06/16 03:16:07;;;;;;;9.68;8.02;;;;;;;17.37;84.60;94182.91;5089742;28;20028;-69
2023/06/16 03:18:33;;;;;;;11.73;7.85;;;;;;;17.43;84.43;94191.88;5072932;28;20039;-70
2023/06/16 03:20:58;;;;;;;8.98;7.85;;;;;;;17.31;85.03;94191.53;5090614;28;20118;-70
2023/06/16 03:23:24;;;;;;;8.18;7.13;;;;;;;17.23;85.38;94175.88;5055939;28;20032;-69
2023/06/16 03:25:50;;;;;;;8.48;7.35;;;;;;;17.30;85.05;94178.59;5090843;28;20032;-69
2023/06/16 03:28:15;;;;;;;11.43;7.60;;;;;;;17.27;84.93;94177.13;5087781;28;20036;-69
2023/06/16 03:30:41;;;;;;;10.82;8.90;;;;;;;17.02;85.69;94166.16;5070045;28;20074;-69
2023/06/16 03:33:06;;;;;;;10.30;7.95;;;;;;;16.63;86.37;94120.00;5052918;28;20036;-69
2023/06/16 03:35:32;;;;;;;10.30;6.97;;;;;;;17.07;86.90;94194.44;5086210;28;20017;-70
2023/06/16 03:37:57;;;;;;;9.40;7.20;;;;;;;17.32;86.31;94192.34;5069500;28;20036;-69
2023/06/16 03:40:23;;;;;;;9.38;7.53;;;;;;;16.89;86.39;94131.88;5069375;28;20082;-69
2023/06/16 03:42:48;;;;;;;7.82;6.80;;;;;;;16.82;86.95;94146.69;5069259;28;20380;-69
2023/06/16 03:45:13;;;;;;;9.32;6.47;;;;;;;16.89;86.90;94143.16;5052536;28;20032;-69
2023/06/16 03:47:40;;;;;;;8.30;6.80;;;;;;;17.40;85.11;94179.94;5081124;28;20055;-69
2023/06/16 03:50:05;;;;;;;9.25;7.30;;;;;;;17.44;85.18;94175.16;5059760;28;20040;-69
2023/06/16 03:52:31;;;;;;;9.23;6.47;;;;;;;17.42;85.58;94175.31;5044341;28;20111;-69
2023/06/16 03:54:57;;;;;;;10.82;7.78;;;;;;;17.24;86.18;94169.63;5058347;28;20043;-69
2023/06/16 03:57:22;;;;;;;8.43;7.45;;;;;;;17.27;86.35;94174.50;5059834;28;20058;-69
2023/06/16 03:59:47;;;;;;;8.68;6.90;;;;;;;16.93;86.88;94147.03;5081618;28;20028;-69
2023/06/16 04:02:13;;;;;;;7.10;6.30;;;;;;;17.06;87.30;94156.09;5092560;28;20429;-69
2023/06/16 04:04:38;;;;;;;8.55;6.60;;;;;;;17.07;87.37;94149.84;5071705;28;20426;-69
2023/06/16 04:07:05;;;;;;;8.90;6.72;;;;;;;16.94;87.63;94150.50;5063414;28;20099;-69
2023/06/16 04:09:30;;;;;;;8.90;6.68;;;;;;;16.74;88.14;94134.44;5093182;28;20032;-69
2023/06/16 04:11:56;;;;;;;7.22;6.00;;;;;;;16.94;88.73;94153.13;5093050;28;20028;-69
2023/06/16 04:14:22;;;;;;;7.65;6.80;;;;;;;16.76;88.71;94129.84;5087355;28;20039;-69
2023/06/16 04:16:47;;;;;;;8.93;7.30;;;;;;;17.07;89.13;94173.47;5060484;28;20313;-69
2023/06/16 04:19:13;;;;;;;10.05;8.50;;;;;;;17.04;88.79;94158.09;5056001;28;20040;-69
2023/06/16 04:21:41;;;;;;;11.68;8.73;;;;;;;17.32;88.06;94164.28;5085060;28;20536;-70
2023/06/16 04:24:07;;;;;;;11.32;9.18;;;;;;;17.46;86.70;94165.25;5076112;28;20056;-69
2023/06/16 04:26:32;;;;;;;11.25;8.70;;;;;;;17.49;86.30;94154.38;5092787;28;20020;-69
2023/06/16 04:29:03;;;;;;;11.55;8.27;;;;;;;17.33;86.52;94152.81;5075771;28;20043;-69
2023/06/16 04:31:31;;;;;;;11.10;7.43;;;;;;;17.26;85.62;94132.72;5074647;28;20020;-69
2023/06/16 04:33:57;;;;;;;9.82;8.43;;;;;;;17.30;86.23;94147.09;5072424;28;20040;-69
2023/06/16 04:36:25;;;;;;;9.32;8.07;;;;;;;17.43;86.92;94166.44;5039664;28;20558;-70
2023/06/16 04:38:51;;;;;;;9.50;7.78;;;;;;;17.32;87.88;94153.78;5072294;28;20044;-69
2023/06/16 04:41:16;;;;;;;9.50;7.97;;;;;;;17.28;88.01;94151.72;5071874;28;20033;-69
2023/06/16 04:43:42;;;;;;;12.00;8.95;;;;;;;17.25;87.67;94160.78;5038852;28;20035;-69
2023/06/16 04:46:07;;;;;;;12.05;8.95;;;;;;;17.34;87.16;94167.53;5075776;28;20526;-69
2023/06/16 04:48:33;;;;;;;11.77;9.13;;;;;;;17.25;87.44;94160.78;5059139;28;20571;-69
2023/06/16 04:50:58;;;;;;;11.35;9.90;;;;;;;17.23;88.01;94157.50;5080286;28;20517;-69
2023/06/16 04:53:24;;;;;;;10.52;9.43;;;;;;;17.31;88.04;94159.22;5061253;28;20486;-69
2023/06/16 04:55:49;;;;;;;12.73;11.30;;;;;;;17.39;87.26;94146.81;5064874;28;20413;-69
2023/06/16 04:58:15;;;;;;;15.88;12.77;;;;;;;17.25;86.71;94128.47;5057193;28;20043;-69
2023/06/16 05:00:40;;;;;;;17.08;12.40;;;;;;;17.51;87.34;94164.69;5070190;28;20521;-69
2023/06/16 05:03:06;;;;;;;15.95;12.52;;;;;;;17.52;87.31;94158.44;5090017;28;20028;-69
2023/06/16 05:05:32;;;;;;;15.65;12.55;;;;;;;17.50;87.66;94161.28;5053543;28;20032;-70
2023/06/16 05:07:58;;;;;;;15.85;12.32;;;;;;;17.40;86.49;94134.50;5063566;28;20025;-70
2023/06/16 05:10:23;;;;;;;15.32;12.32;;;;;;;17.51;87.07;94159.44;5074433;28;20043;-70
2023/06/16 05:12:49;;;;;;;18.55;13.20;;;;;;;17.37;87.68;94158.50;5089476;28;20032;-71
2023/06/16 05:15:14;;;;;;;16.98;12.93;;;;;;;17.26;89.01;94146.66;5074976;28;20036;-71
2023/06/16 05:17:40;;;;;;;17.42;13.07;;;;;;;17.48;88.31;94141.44;5069358;28;20043;-71
2023/06/16 05:20:06;;;;;;;17.38;13.77;;;;;;;17.48;88.44;94151.94;5073361;28;20044;-70
2023/06/16 05:22:32;;;;;;;15.90;13.18;;;;;;;17.39;88.88;94146.00;5080197;28;20044;-69
2023/06/16 05:24:57;;;;;;;15.82;13.50;;;;;;;17.61;88.05;94152.09;5052045;28;20043;-70
2023/06/16 05:27:23;;;;;;;17.17;12.77;;;;;;;17.73;87.19;94149.78;5086000;28;20028;-69
2023/06/16 05:29:52;;;;;;;11.77;10.48;;;;;;;17.55;86.74;94160.69;5082456;28;20589;-69
2023/06/16 05:32:21;;;;;;;12.40;11.13;;;;;;;17.74;86.22;94156.66;5090454;28;20047;-70
2023/06/16 05:34:50;;;;;;;11.60;10.38;;;;;;;17.85;85.30;94169.31;5072837;28;20033;-69
2023/06/16 05:37:15;;;;;;;13.43;10.18;;;;;;;18.01;85.34;94165.66;5073059;28;20540;-70
2023/06/16 05:39:45;;;;;;;13.13;10.00;;;;;;;18.02;83.83;94160.19;5070940;28;20111;-72
2023/06/16 05:42:11;;;;;;;10.95;9.85;;;;;;;18.17;83.88;94157.50;5052732;28;20125;-72
2023/06/16 05:44:37;;;;;;;11.60;9.40;;;;;;;18.47;80.62;94163.41;5078594;28;20028;-71
2023/06/16 05:47:03;;;;;;;12.02;10.35;;;;;;;18.18;83.28;94163.56;5074357;28;20034;-72
2023/06/16 05:49:28;;;;;;;13.30;10.52;;;;;;;18.01;83.85;94160.41;5056840;28;20426;-70
2023/06/16 05:51:56;;;;;;;11.02;9.90;;;;;;;18.16;83.50;94170.81;5091139;28;20028;-70
2023/06/16 05:54:22;;;;;;;12.07;10.55;;;;;;;18.28;84.02;94169.34;5081156;28;20037;-70
2023/06/16 05:56:47;;;;;;;12.20;9.85;;;;;;;18.55;81.63;94165.06;5070779;28;20031;-70
2023/06/16 05:59:13;;;;;;;9.93;9.02;;;;;;;18.73;81.05;94165.41;5070862;28;20475;-70
2023/06/16 06:01:38;;;;;;;8.45;7.53;;;;;;;18.57;80.56;94163.06;5070715;28;20024;-70
2023/06/16 06:04:04;;;;;;;9.77;7.50;;;;;;;18.36;80.93;94163.09;5070729;28;20032;-70
2023/06/16 06:06:29;;;;;;;10.23;7.70;;;;;;;18.59;80.89;94155.00;5070642;28;20043;-70
2023/06/16 06:08:55;;;;;;;9.52;7.47;;;;;;;18.97;80.05;94168.59;5053784;28;20430;-70
2023/06/16 06:11:21;;;;;;;7.50;6.80;;;;;;;18.77;78.07;94157.16;5070451;28;20023;-70
2023/06/16 06:13:46;;;;;;;7.32;6.57;;;;;;;18.87;78.55;94173.41;5054008;28;20411;-70
2023/06/16 06:16:12;;;;;;;7.15;6.20;;;;;;;19.16;76.55;94173.16;5070233;28;20024;-70
2023/06/16 06:18:37;;;;;;;7.10;6.40;;;;;;;19.26;77.09;94169.38;5071607;28;20051;-70
2023/06/16 06:21:03;;;;;;;7.93;6.85;;;;;;;19.43;79.01;94168.81;5070253;28;20024;-70
2023/06/16 06:23:28;;;;;;;7.53;6.82;;;;;;;19.33;75.70;94163.09;5071398;28;20032;-70
2023/06/16 06:25:54;;;;;;;7.20;6.35;;;;;;;19.28;76.43;94169.97;5074391;28;20486;-70
2023/06/16 06:28:19;;;;;;;7.57;5.75;;;;;;;19.41;74.48;94170.84;5089847;28;20135;-70
2023/06/16 06:30:45;;;;;;;7.00;6.30;;;;;;;19.43;76.33;94165.38;5091068;28;20028;-70
2023/06/16 06:33:10;;;;;;;7.57;6.07;;;;;;;19.46;76.58;94167.63;5091163;28;20162;-70
2023/06/16 06:35:36;;;;;;;7.10;6.40;;;;;;;19.49;77.21;94167.22;5089802;28;20028;-70
2023/06/16 06:38:02;;;;;;;9.15;6.22;;;;;;;19.76;73.68;94162.09;5091085;28;20478;-70
2023/06/16 06:40:28;;;;;;;6.72;6.03;;;;;;;19.66;76.54;94161.63;5073109;28;20035;-70
2023/06/16 06:42:54;;;;;;;6.80;6.10;;;;;;;19.66;75.94;94153.75;5072962;28;20093;-70
2023/06/16 06:45:19;;;;;;;8.45;6.47;;;;;;;19.79;76.41;94145.88;5091428;28;20492;-70
2023/06/16 06:47:45;;;;;;;9.38;5.80;;;;;;;20.00;75.95;94143.06;5090133;28;20044;-70
2023/06/16 06:50:10;;;;;;;7.78;6.10;;;;;;;20.18;75.27;94150.38;5089831;28;20064;-70
2023/06/16 06:52:35;;;;;;;7.10;5.50;;;;;;;20.16;73.95;94151.59;5091342;28;20032;-70
2023/06/16 06:55:03;;;;;;;7.22;4.88;;;;;;;20.03;72.81;94160.28;5089970;28;20089;-70
2023/06/16 06:57:29;;;;;;;4.57;4.07;;;;;;;19.98;71.32;94144.28;5089871;28;20495;-70
2023/06/16 06:59:54;;;;;;;4.40;3.65;;;;;;;20.06;70.71;94152.81;5091103;28;20020;-70
2023/06/16 07:02:21;;;;;;;4.25;3.85;;;;;;;20.04;68.89;94151.38;5056312;28;20036;-70
2023/06/16 07:04:46;;;;;;;4.45;4.00;;;;;;;19.75;72.44;94136.72;5056512;28;20032;-70
2023/06/16 07:07:13;;;;;;;5.90;4.15;;;;;;;19.87;72.16;94161.50;5073124;28;20413;-71
2023/06/16 07:09:38;;;;;;;5.53;4.55;;;;;;;19.90;73.94;94166.38;5089939;28;20032;-70
2023/06/16 07:12:04;;;;;;;5.18;4.47;;;;;;;19.73;71.69;94157.22;5089843;28;20031;-70
2023/06/16 07:14:30;;;;;;;5.32;4.13;;;;;;;19.45;71.56;94154.66;5089658;28;20031;-70
2023/06/16 07:16:57;;;;;;;5.38;4.38;;;;;;;19.48;72.38;94149.81;5089734;28;20387;-70
2023/06/16 07:22:56;;;;;;;4.65;4.20;;;;;;;19.47;72.76;94145.53;5091169;28;20111;-70
2023/06/16 07:25:22;;;;;;;6.82;4.90;;;;;;;19.39;71.66;94161.53;5089336;28;20093;-71
2023/06/16 07:27:47;;;;;;;4.80;4.25;;;;;;;19.29;71.78;94132.94;5085934;28;20425;-71
2023/06/16 07:30:13;;;;;;;5.75;5.15;;;;;;;19.48;73.00;94165.63;5092510;28;20028;-71
2023/06/16 07:32:41;;;;;;;6.82;5.97;;;;;;;19.50;73.07;94147.81;5094060;28;20052;-71
2023/06/16 07:35:08;;;;;;;7.22;6.18;;;;;;;19.36;72.16;94164.53;5074748;28;20027;-71
2023/06/16 07:37:36;;;;;;;6.70;6.00;;;;;;;18.89;74.51;94172.22;5063479;28;20036;-72
2023/06/16 07:40:03;;;;;;;8.52;6.72;;;;;;;18.88;73.82;94178.47;5073006;28;20048;-71
2023/06/16 07:42:28;;;;;;;10.35;7.90;;;;;;;18.66;75.49;94171.63;5083017;28;20081;-71
2023/06/16 07:44:54;;;;;;;10.48;9.00;;;;;;;18.83;75.71;94187.94;5094481;28;20028;-71
2023/06/16 07:47:19;;;;;;;12.82;11.18;;;;;;;18.93;74.59;94183.16;5073035;28;20036;-71
2023/06/16 07:49:45;;;;;;;12.30;10.20;;;;;;;18.80;76.42;94173.34;5072832;28;20422;-72
2023/06/16 07:52:11;;;;;;;13.43;10.82;;;;;;;18.74;75.64;94184.66;5065779;28;20508;-71
2023/06/16 07:54:37;;;;;;;12.75;10.38;;;;;;;18.97;75.83;94185.22;5093442;28;20047;-71
2023/06/16 07:57:03;;;;;;;14.05;11.55;;;;;;;19.02;74.37;94187.25;5092924;28;20471;-72
2023/06/16 07:59:28;;;;;;;12.90;11.30;;;;;;;18.99;73.48;94177.13;5092998;28;20517;-70
2023/06/16 08:01:53;;;;;;;14.23;12.73;;;;;;;18.97;74.39;94194.91;5075925;28;20035;-71
2023/06/16 08:04:19;;;;;;;14.48;12.55;;;;;;;18.72;75.57;94165.59;5093110;28;20031;-71
2023/06/16 08:06:44;;;;;;;14.02;10.98;;;;;;;18.90;72.99;94191.44;5085780;28;20055;-71
2023/06/16 08:09:10;;;;;;;17.58;11.52;;;;;;;18.87;73.25;94197.09;5054624;28;20094;-71
2023/06/16 08:11:35;;;;;;;12.90;11.23;;;;;;;18.89;72.35;94203.00;5073834;28;20025;-71
2023/06/16 08:14:01;;;;;;;12.18;10.95;;;;;;;18.83;70.37;94199.28;5083852;28;20033;-71
2023/06/16 08:16:27;;;;;;;13.25;11.55;;;;;;;18.97;72.75;94211.53;5064847;28;20020;-71
2023/06/16 08:18:55;;;;;;;13.07;11.02;;;;;;;18.92;71.48;94207.88;5092973;28;20070;-71
2023/06/16 08:21:20;;;;;;;13.75;11.55;;;;;;;19.04;71.75;94200.25;5073107;28;20039;-71
2023/06/16 08:23:47;;;;;;;12.60;11.23;;;;;;;19.01;71.61;94196.16;5069379;28;20040;-71
2023/06/16 08:26:12;;;;;;;13.85;12.05;;;;;;;19.11;71.12;94198.44;5090925;28;20070;-73
2023/06/16 08:28:40;;;;;;;13.52;12.10;;;;;;;19.25;71.59;94194.91;5073905;28;20032;-73
2023/06/16 08:31:05;;;;;;;12.70;11.45;;;;;;;18.91;72.21;94203.59;5089981;28;20039;-74
2023/06/16 08:33:31;;;;;;;14.25;11.48;;;;;;;19.02;71.74;94196.97;5076221;28;20032;-74
2023/06/16 08:35:56;;;;;;;12.60;11.30;;;;;;;19.10;71.59;94188.94;5093924;28;20433;-74
2023/06/16 08:38:22;;;;;;;12.32;11.02;;;;;;;19.06;71.13;94206.94;5070066;28;20078;-73
2023/06/16 08:40:48;;;;;;;12.32;11.02;;;;;;;19.22;71.38;94187.34;5058806;28;20082;-73
2023/06/16 08:43:14;;;;;;;12.30;11.10;;;;;;;19.34;70.53;94200.81;5091753;28;20432;-73
2023/06/16 08:45:39;;;;;;;12.23;10.93;;;;;;;19.35;71.37;94197.97;5076262;28;20081;-74
2023/06/16 08:48:05;;;;;;;13.45;11.57;;;;;;;19.37;72.29;94193.31;5092347;28;20433;-73
2023/06/16 08:50:32;;;;;;;15.00;12.45;;;;;;;19.24;72.45;94195.06;5092874;28;20047;-73
2023/06/16 08:53:00;;;;;;;14.80;13.10;;;;;;;19.22;72.04;94186.56;5092698;28;20028;-73
2023/06/16 08:55:26;;;;;;;13.25;11.85;;;;;;;19.46;68.99;94191.31;5075459;28;20059;-74
2023/06/16 08:57:52;;;;;;;13.43;12.02;;;;;;;19.61;69.28;94188.53;5058936;28;20032;-73
2023/06/16 09:00:18;;;;;;;14.13;12.52;;;;;;;19.54;71.26;94185.88;5092708;28;20077;-73
2023/06/16 09:02:48;;;;;;;13.32;11.93;;;;;;;19.64;71.54;94186.34;5092642;28;20039;-74
2023/06/16 09:05:15;;;;;;;14.50;12.23;;;;;;;19.74;70.55;94180.72;5093803;28;20038;-74
2023/06/16 09:07:41;;;;;;;13.35;12.05;;;;;;;19.92;70.44;94187.22;5075865;28;20128;-73
2023/06/16 09:10:09;;;;;;;12.88;11.55;;;;;;;19.98;67.73;94178.56;5093378;28;20036;-74
2023/06/16 09:12:35;;;;;;;12.68;11.20;;;;;;;19.99;69.06;94190.72;5059733;28;20028;-74
2023/06/16 09:15:01;;;;;;;13.75;12.07;;;;;;;20.03;69.97;94181.38;5075548;28;20654;-74
2023/06/16 09:17:30;;;;;;;14.63;13.13;;;;;;;19.83;69.94;94183.97;5093755;28;20538;-73
2023/06/16 09:19:55;;;;;;;14.98;12.35;;;;;;;19.95;73.43;94182.41;5075677;28;20040;-73
2023/06/16 09:22:25;;;;;;;13.25;11.85;;;;;;;20.00;69.10;94177.34;5092266;28;20035;-73
2023/06/16 09:24:58;;;;;;;14.65;13.15;;;;;;;20.07;70.97;94148.34;5075630;28;20101;-74
2023/06/16 09:27:49;;;;;;;13.40;12.00;;;;;;;20.32;70.40;94177.56;5075199;28;20399;-74
2023/06/16 09:30:30;;;;;;;12.07;10.57;;;;;;;19.91;67.72;94154.00;5092156;28;20032;-73
2023/06/16 09:32:55;;;;;;;11.75;10.55;;;;;;;20.14;66.86;94178.16;5091835;28;20508;-73
2023/06/16 09:35:25;;;;;;;12.63;11.40;;;;;;;20.13;68.51;94170.47;5091794;28;20025;-74
2023/06/16 09:37:56;;;;;;;11.35;10.25;;;;;;;20.36;66.75;94177.97;5091830;28;20043;-74
2023/06/16 09:40:24;;;;;;;;;;;;;;;20.14;67.83;94172.06;5075729;28;20517;-74
2023/06/16 09:42:50;;;;;;;12.07;10.85;;;;;;;20.28;69.50;94176.34;5092630;28;20011;-74
2023/06/16 09:45:16;;;;;;;11.75;10.43;;;;;;;20.42;68.59;94178.00;5091766;28;20043;-74
2023/06/16 09:47:45;;;;;;;11.30;10.20;;;;;;;20.33;65.70;94179.19;5091452;28;20043;-74
2023/06/16 09:50:14;;;;;;;12.05;10.85;;;;;;;20.37;69.40;94164.59;5074862;28;20534;-73
2023/06/16 09:52:42;;;;;;;13.40;11.35;;;;;;;20.40;68.06;94174.72;5091158;28;20355;-74
2023/06/16 09:55:07;;;;;;;12.02;10.82;;;;;;;20.44;68.16;94175.94;5091814;28;20085;-74
2023/06/16 09:57:33;;;;;;;12.43;11.10;;;;;;;20.38;69.75;94168.84;5091061;28;20032;-74
2023/06/16 09:59:58;;;;;;;13.20;10.95;;;;;;;20.30;69.91;94154.03;5091185;28;20040;-74
2023/06/16 10:02:24;;;;;;;12.13;10.98;;;;;;;20.55;69.18;94171.09;5074634;28;20024;-73
2023/06/16 10:04:51;;;;;;;11.95;10.77;;;;;;;20.72;67.84;94167.03;5074267;28;20107;-73
2023/06/16 10:07:16;;;;;;;11.57;10.48;;;;;;;20.57;65.89;94174.38;5074412;28;20034;-73
2023/06/16 10:09:44;;;;;;;12.23;10.98;;;;;;;20.57;68.69;94171.72;5057881;28;20031;-73
2023/06/16 10:12:12;;;;;;;11.73;10.55;;;;;;;20.47;67.51;94143.06;5057682;28;20035;-74
2023/06/16 10:14:37;;;;;;;11.57;10.48;;;;;;;20.63;66.15;94160.34;5074705;28;20024;-74
2023/06/16 10:17:03;;;;;;;11.55;10.35;;;;;;;20.63;67.67;94161.16;5073985;28;20102;-73
2023/06/16 10:19:28;;;;;;;12.07;10.88;;;;;;;20.79;68.14;94154.66;5091057;28;20043;-73
2023/06/16 10:21:54;;;;;;;11.45;10.45;;;;;;;20.60;66.88;94124.63;5074187;28;20051;-74
2023/06/16 10:24:20;;;;;;;11.60;10.55;;;;;;;20.67;68.23;94157.09;5073902;28;20023;-73
2023/06/16 10:26:45;;;;;;;13.48;11.23;;;;;;;20.64;66.72;94154.03;5073933;28;20028;-73
2023/06/16 10:29:16;;;;;;;11.98;10.88;;;;;;;20.64;68.35;94148.75;5057343;28;20086;-73
2023/06/16 10:31:43;;;;;;;11.68;10.45;;;;;;;20.68;65.56;94148.16;5090822;28;20028;-73
2023/06/16 10:34:09;;;;;;;11.48;10.40;;;;;;;20.74;66.57;94146.53;5092389;28;20038;-73
2023/06/16 10:36:36;;;;;;;12.63;11.43;;;;;;;20.87;64.98;94143.88;5073559;28;20028;-73
2023/06/16 10:39:06;;;;;;;10.52;9.50;;;;;;;20.89;63.48;94148.94;5057630;28;20472;-73
2023/06/16 10:41:33;;;;;;;10.43;9.38;;;;;;;20.91;63.29;94142.44;5090634;28;20028;-73
2023/06/16 10:44:20;;;;;;;11.05;9.95;;;;;;;20.90;63.85;94132.91;5057050;28;20387;-73
2023/06/16 10:47:09;;;;;;;9.65;8.75;;;;;;;21.04;63.37;94132.88;5090471;28;20414;-73
2023/06/16 10:50:04;;;;;;;10.00;9.10;;;;;;;21.22;62.69;94118.97;5091666;28;20052;-73
2023/06/16 10:52:49;;;;;;;9.80;8.90;;;;;;;21.21;62.01;94123.47;5065454;28;20593;-74
2023/06/16 10:55:27;;;;;;;8.95;8.15;;;;;;;21.27;60.79;94117.34;5073888;28;20032;-73
2023/06/16 10:57:57;;;;;;;9.13;8.30;;;;;;;21.24;62.10;94112.47;5090427;28;20035;-73
2023/06/16 11:00:27;;;;;;;8.93;8.10;;;;;;;21.22;60.67;94109.22;5073787;28;20036;-73
2023/06/16 11:02:57;;;;;;;9.05;8.25;;;;;;;21.22;62.41;94118.97;5090077;28;20057;-73
2023/06/16 11:05:22;;;;;;;9.10;8.30;;;;;;;20.97;62.48;94107.28;5056828;28;20032;-73
2023/06/16 11:07:58;;;;;;;9.90;9.00;;;;;;;20.96;64.00;94113.59;5073131;28;20410;-73
2023/06/16 11:10:23;;;;;;;9.32;8.18;;;;;;;21.20;61.75;94108.63;5091486;28;20317;-73
2023/06/16 11:12:52;;;;;;;9.30;8.50;;;;;;;21.22;62.04;94090.75;5090110;28;20039;-73
2023/06/16 11:15:19;;;;;;;10.07;8.85;;;;;;;21.27;63.20;94088.28;5073392;28;20036;-74
2023/06/16 11:17:47;;;;;;;9.55;8.65;;;;;;;21.36;64.09;94094.13;5073016;28;20478;-73
2023/06/16 11:20:13;;;;;;;8.50;7.63;;;;;;;21.44;62.31;94090.47;5089738;28;20081;-74
2023/06/16 11:22:38;;;;;;;7.70;7.00;;;;;;;21.62;60.38;94088.75;5073181;28;20519;-72
2023/06/16 11:25:04;;;;;;;8.02;7.22;;;;;;;21.64;60.21;94077.94;5089678;28;20064;-73
2023/06/16 11:27:30;;;;;;;7.93;7.13;;;;;;;21.66;59.81;94078.56;5089765;28;20413;-73